createdAt,value
2019-02-24T00:02:01.296Z,5.20
2019-02-24T00:04:29.886Z,5.20
2019-02-24T00:06:58.536Z,5.10
2019-02-24T00:09:27.180Z,5.20
2019-02-24T00:11:57.398Z,5.20
2019-02-24T00:14:26.020Z,5.10
2019-02-24T00:16:55.033Z,5.10
2019-02-24T00:19:24.049Z,5.10
2019-02-24T00:21:52.642Z,5.10
2019-02-24T00:24:21.257Z,5.00
2019-02-24T00:26:50.059Z,4.90
2019-02-24T00:29:18.705Z,4.90
2019-02-24T00:31:47.425Z,4.80
2019-02-24T00:34:16.052Z,4.90
2019-02-24T00:36:44.798Z,4.80
2019-02-24T00:39:13.388Z,4.70
2019-02-24T00:41:42.067Z,4.70
2019-02-24T00:44:10.650Z,4.70
2019-02-24T00:46:39.328Z,4.70
2019-02-24T00:49:07.913Z,4.70
2019-02-24T00:51:36.529Z,4.60
2019-02-24T00:54:05.120Z,4.60
2019-02-24T00:56:33.793Z,4.70
2019-02-24T00:59:02.387Z,4.70
2019-02-24T01:01:31.334Z,4.60
2019-02-24T01:03:59.909Z,4.60
2019-02-24T01:06:28.591Z,4.50
2019-02-24T01:08:57.326Z,4.50
2019-02-24T01:11:25.889Z,4.60
2019-02-24T01:13:54.550Z,4.60
2019-02-24T01:16:23.224Z,4.60
2019-02-24T01:18:52.154Z,4.60
2019-02-24T01:21:20.752Z,4.60
2019-02-24T01:23:49.363Z,4.50
2019-02-24T01:26:17.947Z,4.60
2019-02-24T01:28:46.756Z,4.50
2019-02-24T01:31:16.926Z,4.50
2019-02-24T01:33:45.486Z,4.60
2019-02-24T01:36:14.072Z,4.50
2019-02-24T01:38:43.074Z,4.50
2019-02-24T01:41:11.654Z,4.50
2019-02-24T01:43:59.597Z,4.50
2019-02-24T01:46:28.181Z,4.50
2019-02-24T01:48:57.269Z,4.50
2019-02-24T01:51:25.841Z,4.50
2019-02-24T01:53:54.844Z,4.40
2019-02-24T01:56:23.525Z,4.40
2019-02-24T01:58:52.131Z,4.40
2019-02-24T02:01:20.952Z,4.30
2019-02-24T02:03:49.552Z,4.40
2019-02-24T02:06:18.134Z,4.30
2019-02-24T02:08:46.806Z,4.30
2019-02-24T02:11:15.418Z,4.30
2019-02-24T02:13:44.066Z,4.30
2019-02-24T02:16:12.751Z,4.30
2019-02-24T02:18:41.393Z,4.20
2019-02-24T02:21:10.014Z,4.30
2019-02-24T02:23:38.804Z,4.30
2019-02-24T02:26:07.469Z,4.30
2019-02-24T02:28:43.814Z,4.20
2019-02-24T02:31:06.340Z,4.30
2019-02-24T02:33:34.949Z,4.20
2019-02-24T02:36:03.537Z,4.20
2019-02-24T02:38:32.137Z,4.20
2019-02-24T02:41:01.174Z,4.20
2019-02-24T02:43:30.148Z,4.20
2019-02-24T02:45:58.729Z,4.20
2019-02-24T02:48:27.343Z,4.20
2019-02-24T02:50:55.937Z,4.20
2019-02-24T02:53:24.557Z,4.20
2019-02-24T02:55:53.485Z,4.20
2019-02-24T02:58:22.232Z,4.10
2019-02-24T03:00:50.927Z,4.10
2019-02-24T03:03:19.743Z,4.10
2019-02-24T03:05:49.962Z,4.00
2019-02-24T03:08:18.702Z,4.00
2019-02-24T03:10:47.389Z,4.00
2019-02-24T03:13:16.410Z,4.00
2019-02-24T03:15:45.299Z,4.00
2019-02-24T03:18:13.903Z,4.00
2019-02-24T03:20:42.521Z,4.00
2019-02-24T03:23:11.460Z,4.00
2019-02-24T03:25:40.154Z,4.00
2019-02-24T03:28:08.771Z,4.00
2019-02-24T03:30:37.480Z,4.00
2019-02-24T03:33:06.207Z,4.00
2019-02-24T03:35:34.766Z,3.90
2019-02-24T03:38:03.428Z,3.80
2019-02-24T03:40:32.101Z,3.80
2019-02-24T03:43:00.853Z,3.80
2019-02-24T03:45:29.464Z,3.70
2019-02-24T03:47:58.075Z,3.70
2019-02-24T03:50:26.748Z,3.70
2019-02-24T03:52:55.579Z,3.70
2019-02-24T03:55:24.446Z,3.70
2019-02-24T03:57:53.669Z,3.80
2019-02-24T04:00:22.296Z,3.80
2019-02-24T04:02:51.050Z,3.80
2019-02-24T04:05:19.735Z,3.80
2019-02-24T04:07:48.795Z,3.90
2019-02-24T04:10:17.407Z,3.80
2019-02-24T04:12:46.133Z,3.90
2019-02-24T04:15:15.250Z,3.90
2019-02-24T04:17:43.963Z,4.00
2019-02-24T04:20:12.801Z,4.10
2019-02-24T04:22:41.498Z,4.10
2019-02-24T04:25:10.317Z,4.10
2019-02-24T04:27:38.918Z,4.10
2019-02-24T04:30:08.563Z,4.00
2019-02-24T04:32:37.249Z,4.10
2019-02-24T04:35:07.827Z,4.10
2019-02-24T04:37:36.407Z,4.00
2019-02-24T04:40:06.829Z,4.00
2019-02-24T04:42:36.680Z,3.90
2019-02-24T04:45:06.076Z,4.00
2019-02-24T04:47:34.680Z,4.00
2019-02-24T04:50:03.544Z,4.00
2019-02-24T04:52:32.254Z,4.00
2019-02-24T04:55:00.938Z,4.10
2019-02-24T04:57:29.872Z,4.00
2019-02-24T04:59:58.444Z,4.10
2019-02-24T05:02:27.193Z,4.00
2019-02-24T05:04:55.778Z,4.00
2019-02-24T05:07:24.880Z,4.00
2019-02-24T05:09:53.626Z,4.10
2019-02-24T05:12:22.307Z,4.10
2019-02-24T05:14:51.046Z,4.00
2019-02-24T05:17:19.764Z,4.00
2019-02-24T05:19:48.401Z,4.00
2019-02-24T05:22:17.482Z,4.00
2019-02-24T05:24:46.066Z,4.00
2019-02-24T05:27:14.674Z,4.00
2019-02-24T05:29:46.239Z,4.00
2019-02-24T05:32:13.586Z,4.00
2019-02-24T05:34:42.649Z,4.00
2019-02-24T05:37:11.263Z,4.00
2019-02-24T05:39:40.270Z,3.90
2019-02-24T05:42:09.250Z,3.90
2019-02-24T05:44:37.898Z,3.90
2019-02-24T05:47:06.508Z,3.90
2019-02-24T05:49:35.104Z,3.90
2019-02-24T05:52:03.775Z,3.90
2019-02-24T05:54:32.536Z,3.90
2019-02-24T05:57:01.234Z,3.90
2019-02-24T05:59:29.904Z,3.90
2019-02-24T06:01:58.528Z,3.90
2019-02-24T06:04:27.146Z,3.80
2019-02-24T06:06:55.889Z,3.80
2019-02-24T06:09:24.511Z,3.80
2019-02-24T06:11:53.270Z,3.70
2019-02-24T06:14:22.243Z,3.70
2019-02-24T06:16:50.834Z,3.70
2019-02-24T06:19:19.484Z,3.70
2019-02-24T06:21:48.212Z,3.70
2019-02-24T06:24:16.837Z,3.70
2019-02-24T06:26:45.535Z,3.70
2019-02-24T06:29:14.244Z,3.70
2019-02-24T06:31:43.002Z,3.70
2019-02-24T06:34:11.791Z,3.70
2019-02-24T06:36:40.707Z,3.60
2019-02-24T06:39:09.874Z,3.60
2019-02-24T06:41:38.610Z,3.60
2019-02-24T06:44:07.241Z,3.60
2019-02-24T06:46:36.891Z,3.60
2019-02-24T06:49:05.556Z,3.60
2019-02-24T06:51:34.554Z,3.60
2019-02-24T06:54:03.318Z,3.60
2019-02-24T06:56:32.337Z,3.60
2019-02-24T06:59:00.954Z,3.60
2019-02-24T07:01:29.554Z,3.60
2019-02-24T07:03:58.232Z,3.70
2019-02-24T07:06:26.848Z,3.70
2019-02-24T07:08:55.779Z,3.70
2019-02-24T07:11:24.470Z,3.80
2019-02-24T07:13:53.076Z,3.80
2019-02-24T07:16:21.832Z,4.00
2019-02-24T07:18:50.421Z,4.40
2019-02-24T07:21:19.048Z,4.70
2019-02-24T07:23:47.732Z,4.90
2019-02-24T07:26:16.759Z,4.90
2019-02-24T07:28:45.367Z,5.00
2019-02-24T07:31:14.017Z,5.10
2019-02-24T07:33:42.619Z,5.30
2019-02-24T07:36:11.202Z,5.60
2019-02-24T07:38:39.905Z,5.90
2019-02-24T07:41:08.675Z,5.90
2019-02-24T07:43:37.347Z,6.10
2019-02-24T07:46:06.002Z,6.10
2019-02-24T07:48:34.830Z,6.20
2019-02-24T07:51:03.807Z,6.50
2019-02-24T07:53:32.607Z,6.70
2019-02-24T07:56:02.350Z,6.90
2019-02-24T07:58:30.592Z,7.10
2019-02-24T08:00:59.263Z,7.50
2019-02-24T08:03:27.911Z,7.80
2019-02-24T08:05:56.929Z,8.30
2019-02-24T08:08:25.514Z,8.20
2019-02-24T08:10:54.781Z,8.90
2019-02-24T08:13:23.801Z,9.00
2019-02-24T08:15:52.508Z,9.00
2019-02-24T08:18:21.601Z,9.30
2019-02-24T08:20:50.312Z,9.40
2019-02-24T08:23:20.341Z,9.50
2019-02-24T08:25:49.421Z,9.50
2019-02-24T08:28:17.305Z,9.60
2019-02-24T08:30:45.999Z,9.80
2019-02-24T08:33:14.923Z,10.10
2019-02-24T08:35:42.881Z,11.00
2019-02-24T08:38:11.489Z,11.00
2019-02-24T08:40:40.162Z,11.80
2019-02-24T08:43:08.822Z,12.00
2019-02-24T08:45:37.521Z,12.80
2019-02-24T08:48:06.316Z,11.20
2019-02-24T08:50:34.928Z,11.60
2019-02-24T08:53:03.580Z,11.00
2019-02-24T08:55:32.230Z,11.10
2019-02-24T08:58:00.856Z,11.10
2019-02-24T09:00:29.597Z,11.40
2019-02-24T09:02:58.290Z,11.20
2019-02-24T09:05:27.319Z,11.80
2019-02-24T09:07:56.411Z,12.40
2019-02-24T09:10:25.200Z,11.80
2019-02-24T09:12:53.747Z,12.20
2019-02-24T09:15:22.662Z,11.80
2019-02-24T09:17:51.508Z,13.10
2019-02-24T09:20:20.258Z,12.50
2019-02-24T09:22:48.934Z,12.40
2019-02-24T09:25:18.126Z,12.60
2019-02-24T09:27:46.866Z,13.20
2019-02-24T09:30:15.887Z,13.40
2019-02-24T09:32:44.558Z,13.20
2019-02-24T09:35:13.330Z,13.40
2019-02-24T09:37:42.424Z,13.20
2019-02-24T09:40:11.945Z,13.30
2019-02-24T09:42:40.680Z,13.50
2019-02-24T09:45:12.106Z,14.30
2019-02-24T09:47:46.881Z,14.40
2019-02-24T09:50:11.331Z,13.90
2019-02-24T09:52:40.068Z,12.40
2019-02-24T09:55:09.715Z,12.10
2019-02-24T09:57:38.891Z,12.90
2019-02-24T10:00:15.361Z,13.00
2019-02-24T10:02:44.323Z,12.60
2019-02-24T10:05:13.107Z,12.70
2019-02-24T10:07:41.722Z,12.40
2019-02-24T10:10:14.620Z,12.00
2019-02-24T10:12:43.311Z,12.00
2019-02-24T10:15:14.019Z,12.50
2019-02-24T10:17:42.703Z,12.30
2019-02-24T10:20:12.442Z,12.60
2019-02-24T10:22:41.102Z,12.70
2019-02-24T10:25:10.526Z,12.90
2019-02-24T10:27:39.251Z,12.40
2019-02-24T10:30:10.939Z,12.30
2019-02-24T10:32:39.687Z,12.50
2019-02-24T10:35:08.582Z,12.40
2019-02-24T10:37:37.303Z,12.40
2019-02-24T10:40:16.665Z,12.50
2019-02-24T10:42:45.844Z,12.20
2019-02-24T10:45:16.500Z,11.90
2019-02-24T10:47:45.164Z,11.90
2019-02-24T10:50:15.300Z,11.70
2019-02-24T10:52:44.062Z,11.90
2019-02-24T10:55:13.147Z,11.80
2019-02-24T10:57:43.173Z,12.00
2019-02-24T11:00:16.172Z,11.90
2019-02-24T11:02:45.346Z,11.90
2019-02-24T11:05:15.277Z,12.00
2019-02-24T11:07:44.108Z,11.80
2019-02-24T11:10:13.044Z,11.90
2019-02-24T11:12:41.683Z,11.80
2019-02-24T11:15:12.564Z,11.80
2019-02-24T11:17:41.406Z,11.60
2019-02-24T11:20:15.831Z,11.50
2019-02-24T11:22:44.561Z,11.70
2019-02-24T11:25:13.650Z,11.70
2019-02-24T11:27:42.624Z,11.80
2019-02-24T11:30:13.436Z,11.70
2019-02-24T11:32:42.220Z,12.00
2019-02-24T11:35:12.261Z,12.00
2019-02-24T11:37:41.141Z,12.10
2019-02-24T11:40:11.757Z,12.00
2019-02-24T11:42:40.761Z,12.00
2019-02-24T11:45:10.013Z,12.10
2019-02-24T11:47:38.703Z,12.10
2019-02-24T11:50:11.818Z,12.40
2019-02-24T11:52:40.601Z,12.20
2019-02-24T11:55:10.642Z,12.40
2019-02-24T11:57:39.473Z,12.40
2019-02-24T12:00:13.003Z,12.40
2019-02-24T12:02:42.039Z,12.40
2019-02-24T12:05:11.599Z,12.60
2019-02-24T12:07:40.748Z,12.60
2019-02-24T12:10:11.322Z,12.60
2019-02-24T12:12:40.163Z,12.70
2019-02-24T12:15:14.164Z,12.70
2019-02-24T12:17:44.048Z,12.80
2019-02-24T12:20:15.010Z,13.00
2019-02-24T12:22:43.767Z,13.20
2019-02-24T12:25:12.759Z,13.20
2019-02-24T12:27:41.412Z,13.30
2019-02-24T12:30:12.393Z,13.30
2019-02-24T12:32:41.174Z,13.30
2019-02-24T12:35:10.286Z,13.30
2019-02-24T12:37:39.504Z,13.30
2019-02-24T12:40:15.927Z,13.40
2019-02-24T12:42:44.568Z,13.60
2019-02-24T12:45:13.344Z,13.60
2019-02-24T12:47:45.002Z,13.50
2019-02-24T12:50:18.178Z,13.50
2019-02-24T12:52:46.931Z,13.50
2019-02-24T12:55:15.609Z,13.70
2019-02-24T12:57:44.712Z,13.70
2019-02-24T13:00:25.576Z,13.70
2019-02-24T13:02:54.773Z,13.80
2019-02-24T13:05:23.999Z,13.90
2019-02-24T13:07:52.804Z,13.80
2019-02-24T13:10:21.546Z,13.90
2019-02-24T13:12:50.176Z,13.90
2019-02-24T13:15:19.098Z,14.00
2019-02-24T13:17:47.856Z,14.00
2019-02-24T13:20:16.639Z,14.00
2019-02-24T13:22:45.395Z,14.10
2019-02-24T13:25:14.641Z,14.10
2019-02-24T13:27:43.821Z,14.10
2019-02-24T13:30:14.750Z,14.10
2019-02-24T13:32:43.540Z,14.20
2019-02-24T13:35:12.141Z,14.30
2019-02-24T13:37:41.066Z,14.30
2019-02-24T13:40:14.880Z,14.30
2019-02-24T13:42:44.069Z,14.20
2019-02-24T13:45:17.956Z,14.50
2019-02-24T13:47:46.764Z,14.40
2019-02-24T13:50:16.162Z,14.40
2019-02-24T13:52:44.950Z,14.40
2019-02-24T13:55:15.164Z,14.40
2019-02-24T13:57:43.856Z,14.50
2019-02-24T14:00:15.263Z,14.50
2019-02-24T14:02:43.931Z,14.70
2019-02-24T14:05:13.025Z,14.70
2019-02-24T14:07:41.771Z,14.60
2019-02-24T14:10:12.575Z,14.60
2019-02-24T14:12:41.799Z,14.70
2019-02-24T14:15:14.581Z,14.90
2019-02-24T14:17:43.718Z,14.90
2019-02-24T14:20:16.455Z,14.90
2019-02-24T14:22:45.217Z,14.90
2019-02-24T14:25:15.085Z,15.00
2019-02-24T14:27:44.248Z,15.00
2019-02-24T14:30:19.130Z,15.00
2019-02-24T14:32:48.375Z,14.90
2019-02-24T14:35:25.273Z,14.80
2019-02-24T14:37:54.141Z,14.90
2019-02-24T14:40:23.241Z,14.90
2019-02-24T14:42:52.084Z,14.90
2019-02-24T14:45:22.447Z,15.10
2019-02-24T14:47:51.194Z,15.10
2019-02-24T14:50:20.258Z,15.10
2019-02-24T14:52:49.011Z,15.30
2019-02-24T14:55:17.731Z,15.30
2019-02-24T14:57:46.481Z,15.20
2019-02-24T15:00:25.919Z,15.10
2019-02-24T15:02:54.954Z,15.20
2019-02-24T15:05:23.606Z,15.10
2019-02-24T15:07:52.425Z,15.00
2019-02-24T15:10:25.293Z,15.10
2019-02-24T15:12:54.052Z,15.10
2019-02-24T15:15:33.049Z,15.10
2019-02-24T15:17:59.116Z,15.10
2019-02-24T15:20:28.195Z,15.10
2019-02-24T15:22:57.953Z,15.10
2019-02-24T15:25:26.710Z,15.10
2019-02-24T15:27:55.888Z,15.10
2019-02-24T15:30:30.642Z,15.10
2019-02-24T15:32:59.808Z,15.10
2019-02-24T15:35:29.048Z,15.00
2019-02-24T15:37:57.736Z,15.00
2019-02-24T15:40:26.928Z,15.00
2019-02-24T15:42:55.624Z,14.90
2019-02-24T15:45:24.639Z,15.00
2019-02-24T15:47:53.349Z,14.90
2019-02-24T15:50:22.086Z,14.90
2019-02-24T15:52:50.669Z,14.90
2019-02-24T15:55:19.743Z,14.90
2019-02-24T15:57:48.313Z,14.90
2019-02-24T16:00:18.760Z,14.90
2019-02-24T16:02:47.498Z,14.90
2019-02-24T16:05:17.853Z,14.90
2019-02-24T16:07:48.496Z,14.80
2019-02-24T16:10:21.792Z,14.70
2019-02-24T16:12:50.782Z,14.70
2019-02-24T16:15:21.710Z,14.70
2019-02-24T16:17:50.356Z,14.50
2019-02-24T16:20:21.962Z,14.30
2019-02-24T16:22:50.949Z,14.10
2019-02-24T16:25:19.920Z,14.00
2019-02-24T16:27:48.731Z,14.00
2019-02-24T16:30:17.416Z,13.90
2019-02-24T16:32:46.097Z,13.80
2019-02-24T16:35:16.348Z,13.70
2019-02-24T16:37:45.158Z,13.60
2019-02-24T16:40:16.134Z,13.50
2019-02-24T16:42:45.241Z,13.40
2019-02-24T16:45:15.672Z,13.20
2019-02-24T16:47:44.755Z,13.10
2019-02-24T16:50:17.916Z,13.20
2019-02-24T16:52:46.569Z,13.00
2019-02-24T16:55:18.853Z,12.80
2019-02-24T16:57:48.148Z,12.60
2019-02-24T17:00:19.836Z,12.50
2019-02-24T17:02:49.049Z,12.20
2019-02-24T17:05:17.889Z,11.90
2019-02-24T17:07:46.676Z,11.80
2019-02-24T17:10:28.573Z,11.60
2019-02-24T17:12:57.525Z,11.40
2019-02-24T17:15:26.292Z,11.30
2019-02-24T17:17:55.034Z,11.10
2019-02-24T17:20:28.080Z,10.90
2019-02-24T17:22:56.849Z,10.70
2019-02-24T17:25:25.592Z,10.60
2019-02-24T17:27:54.277Z,10.50
2019-02-24T17:30:23.797Z,10.30
2019-02-24T17:32:53.106Z,10.10
2019-02-24T17:35:22.307Z,10.10
2019-02-24T17:37:51.038Z,10.00
2019-02-24T17:40:21.270Z,10.00
2019-02-24T17:42:50.319Z,9.80
2019-02-24T17:45:19.397Z,9.70
2019-02-24T17:47:48.117Z,9.60
2019-02-24T17:50:17.688Z,9.60
2019-02-24T17:52:46.857Z,9.50
2019-02-24T17:55:17.564Z,9.50
2019-02-24T17:57:46.276Z,9.50
2019-02-24T18:00:19.038Z,9.50
2019-02-24T18:02:47.734Z,9.40
2019-02-24T18:05:16.777Z,9.30
2019-02-24T18:07:45.666Z,9.20
2019-02-24T18:10:14.653Z,9.10
2019-02-24T18:12:43.372Z,9.00
2019-02-24T18:15:13.714Z,8.90
2019-02-24T18:17:42.392Z,8.90
2019-02-24T18:20:14.144Z,8.80
2019-02-24T18:22:42.896Z,8.90
2019-02-24T18:25:13.081Z,8.80
2019-02-24T18:27:41.906Z,8.70
2019-02-24T18:30:19.172Z,8.60
2019-02-24T18:32:48.481Z,8.60
2019-02-24T18:35:17.554Z,8.50
2019-02-24T18:37:46.362Z,8.50
2019-02-24T18:40:16.031Z,8.40
2019-02-24T18:42:44.712Z,8.30
2019-02-24T18:45:14.428Z,8.30
2019-02-24T18:47:43.616Z,8.30
2019-02-24T18:50:16.426Z,8.20
2019-02-24T18:52:45.408Z,8.20
2019-02-24T18:55:14.726Z,8.20
2019-02-24T18:57:43.627Z,8.00
2019-02-24T19:00:20.985Z,7.80
2019-02-24T19:02:50.088Z,7.80
2019-02-24T19:05:18.849Z,7.80
2019-02-24T19:07:47.862Z,7.80
2019-02-24T19:10:23.481Z,7.80
2019-02-24T19:12:52.164Z,7.80
2019-02-24T19:15:25.816Z,7.70
2019-02-24T19:17:54.554Z,7.60
2019-02-24T19:20:24.686Z,7.60
2019-02-24T19:22:53.598Z,7.60
2019-02-24T19:25:22.756Z,7.50
2019-02-24T19:27:51.745Z,7.50
2019-02-24T19:30:21.204Z,7.40
2019-02-24T19:32:50.043Z,7.40
2019-02-24T19:35:19.771Z,7.30
2019-02-24T19:37:48.886Z,7.30
2019-02-24T19:40:21.262Z,7.30
2019-02-24T19:42:50.397Z,7.00
2019-02-24T19:45:20.876Z,6.80
2019-02-24T19:47:49.849Z,6.80
2019-02-24T19:50:18.824Z,6.90
2019-02-24T19:52:47.701Z,6.90
2019-02-24T19:55:17.428Z,6.90
2019-02-24T19:57:46.607Z,7.00
2019-02-24T20:00:20.560Z,7.00
2019-02-24T20:02:49.746Z,7.00
2019-02-24T20:05:19.556Z,6.90
2019-02-24T20:07:48.702Z,6.80
2019-02-24T20:10:25.603Z,6.80
2019-02-24T20:12:54.276Z,6.70
2019-02-24T20:15:23.179Z,6.70
2019-02-24T20:17:52.115Z,6.60
2019-02-24T20:20:20.993Z,6.60
2019-02-24T20:22:49.744Z,6.60
2019-02-24T20:25:20.587Z,6.60
2019-02-24T20:27:49.314Z,6.60
2019-02-24T20:30:26.979Z,6.40
2019-02-24T20:32:55.639Z,6.40
2019-02-24T20:35:24.426Z,6.40
2019-02-24T20:37:53.192Z,6.50
2019-02-24T20:40:22.331Z,6.40
2019-02-24T20:42:51.281Z,6.40
2019-02-24T20:45:21.104Z,6.40
2019-02-24T20:47:50.427Z,6.50
2019-02-24T20:50:28.164Z,6.50
2019-02-24T20:52:56.931Z,6.40
2019-02-24T20:55:25.626Z,6.60
2019-02-24T20:57:54.305Z,6.70
2019-02-24T21:00:31.577Z,6.70
2019-02-24T21:03:01.418Z,6.70
2019-02-24T21:05:30.856Z,6.70
2019-02-24T21:07:59.645Z,6.90
2019-02-24T21:10:28.398Z,6.90
2019-02-24T21:12:57.214Z,6.90
2019-02-24T21:15:25.890Z,7.10
2019-02-24T21:17:54.688Z,7.20
2019-02-24T21:20:26.735Z,7.20
2019-02-24T21:22:55.381Z,7.20
2019-02-24T21:25:24.163Z,7.30
2019-02-24T21:27:52.912Z,7.20
2019-02-24T21:30:21.857Z,7.10
2019-02-24T21:32:50.829Z,7.20
2019-02-24T21:35:19.573Z,7.10
2019-02-24T21:37:48.359Z,7.10
2019-02-24T21:40:18.508Z,7.10
2019-02-24T21:42:47.309Z,7.10
2019-02-24T21:45:21.407Z,7.00
2019-02-24T21:49:46.313Z,7.10
2019-02-24T21:52:15.990Z,6.90
2019-02-24T21:54:45.845Z,6.90
2019-02-24T21:57:15.902Z,6.80
2019-02-24T21:59:46.089Z,6.70
2019-02-24T22:02:15.916Z,6.70
2019-02-24T22:04:45.662Z,6.70
2019-02-24T22:07:16.108Z,6.60
2019-02-24T22:09:45.832Z,6.60
2019-02-24T22:12:15.431Z,6.60
2019-02-24T22:14:45.460Z,6.50
2019-02-24T22:17:15.392Z,6.50
2019-02-24T22:19:47.596Z,6.50
2019-02-24T22:22:17.504Z,6.40
2019-02-24T22:24:48.078Z,6.70
2019-02-24T22:27:17.856Z,6.70
2019-02-24T22:29:48.402Z,6.60
2019-02-24T22:32:18.294Z,6.50
2019-02-24T22:34:48.187Z,6.50
2019-02-24T22:37:18.495Z,6.40
2019-02-24T22:39:49.094Z,6.30
2019-02-24T22:42:19.216Z,6.40
2019-02-24T22:44:49.470Z,6.20
2019-02-24T22:47:19.872Z,6.10
2019-02-24T22:49:49.608Z,6.00
2019-02-24T22:52:19.705Z,6.20
2019-02-24T22:54:49.635Z,6.10
2019-02-24T22:57:19.752Z,6.00
2019-02-24T22:59:49.551Z,6.00
2019-02-24T23:02:22.096Z,5.90
2019-02-24T23:04:52.667Z,5.90
2019-02-24T23:07:22.648Z,6.00
2019-02-24T23:09:52.412Z,5.90
2019-02-24T23:12:22.212Z,5.90
2019-02-24T23:14:52.296Z,6.00
2019-02-24T23:17:22.133Z,6.40
2019-02-24T23:19:51.998Z,6.70
2019-02-24T23:22:22.000Z,6.70
2019-02-24T23:24:52.258Z,6.50
2019-02-24T23:27:23.096Z,6.50
2019-02-24T23:29:52.843Z,6.60
2019-02-24T23:32:22.635Z,6.60
2019-02-24T23:34:52.781Z,6.40
2019-02-24T23:37:22.855Z,6.50
2019-02-24T23:39:52.430Z,6.30
2019-02-24T23:42:22.481Z,6.20
2019-02-24T23:44:52.341Z,6.10
2019-02-24T23:47:21.907Z,6.10
2019-02-24T23:49:51.645Z,6.10
2019-02-24T23:52:21.918Z,6.10
2019-02-24T23:54:51.743Z,6.10
2019-02-24T23:57:21.578Z,6.20
2019-02-24T23:59:51.678Z,6.30
